sensor_id;sensor_type;location;lat;lon;timestamp;pressure;altitude;pressure_sealevel;temperature;humidity
71504;BME280;59323;50.874;7.028;2023-03-04T00:01:35;102216.03;;;0.83;92.61
71504;BME280;59323;50.874;7.028;2023-03-04T00:04:01;102218.44;;;0.85;93.95
71504;BME280;59323;50.874;7.028;2023-03-04T00:06:26;102217.63;;;0.84;92.68
71504;BME280;59323;50.874;7.028;2023-03-04T00:08:52;102213.09;;;0.85;93.10
71504;BME280;59323;50.874;7.028;2023-03-04T00:11:17;102216.03;;;0.83;93.27
71504;BME280;59323;50.874;7.028;2023-03-04T00:13:42;102220.84;;;0.86;93.73
71504;BME280;59323;50.874;7.028;2023-03-04T00:16:08;102213.88;;;0.85;93.00
71504;BME280;59323;50.874;7.028;2023-03-04T00:18:33;102220.59;;;0.88;91.82
71504;BME280;59323;50.874;7.028;2023-03-04T00:20:58;102215.75;;;0.85;92.37
71504;BME280;59323;50.874;7.028;2023-03-04T00:23:24;102213.09;;;0.85;92.27
71504;BME280;59323;50.874;7.028;2023-03-04T00:25:49;102217.91;;;0.88;92.42
71504;BME280;59323;50.874;7.028;2023-03-04T00:28:15;102217.66;;;0.89;92.48
71504;BME280;59323;50.874;7.028;2023-03-04T00:30:40;102218.44;;;0.90;93.59
71504;BME280;59323;50.874;7.028;2023-03-04T00:33:05;102220.88;;;0.91;92.77
71504;BME280;59323;50.874;7.028;2023-03-04T00:35:31;102215.50;;;0.91;92.60
71504;BME280;59323;50.874;7.028;2023-03-04T00:37:56;102214.97;;;0.89;92.34
71504;BME280;59323;50.874;7.028;2023-03-04T00:40:21;102213.38;;;0.93;92.34
71504;BME280;59323;50.874;7.028;2023-03-04T00:42:47;102208.81;;;0.94;92.47
71504;BME280;59323;50.874;7.028;2023-03-04T00:45:12;102212.31;;;0.94;92.28
71504;BME280;59323;50.874;7.028;2023-03-04T00:47:37;102203.47;;;0.94;91.23
71504;BME280;59323;50.874;7.028;2023-03-04T00:50:03;102213.91;;;0.95;91.65
71504;BME280;59323;50.874;7.028;2023-03-04T00:52:30;102205.09;;;1.00;93.10
71504;BME280;59323;50.874;7.028;2023-03-04T00:54:56;102203.75;;;0.98;92.36
71504;BME280;59323;50.874;7.028;2023-03-04T00:57:21;102202.16;;;0.97;92.03
71504;BME280;59323;50.874;7.028;2023-03-04T00:59:46;102200.81;;;0.99;92.14
71504;BME280;59323;50.874;7.028;2023-03-04T01:02:14;102200.56;;;1.01;93.37
71504;BME280;59323;50.874;7.028;2023-03-04T01:04:39;102201.63;;;1.00;93.13
71504;BME280;59323;50.874;7.028;2023-03-04T01:07:06;102198.69;;;1.01;92.68
71504;BME280;59323;50.874;7.028;2023-03-04T01:09:31;102196.81;;;1.02;91.75
71504;BME280;59323;50.874;7.028;2023-03-04T01:11:56;102208.06;;;1.04;93.65
71504;BME280;59323;50.874;7.028;2023-03-04T01:14:22;102194.41;;;1.00;93.57
71504;BME280;59323;50.874;7.028;2023-03-04T01:16:48;102196.53;;;1.03;92.63
71504;BME280;59323;50.874;7.028;2023-03-04T01:19:14;102187.16;;;1.01;92.63
71504;BME280;59323;50.874;7.028;2023-03-04T01:21:39;102188.50;;;1.03;92.59
71504;BME280;59323;50.874;7.028;2023-03-04T01:24:05;102183.69;;;1.05;93.41
71504;BME280;59323;50.874;7.028;2023-03-04T01:26:30;102182.38;;;1.08;93.52
71504;BME280;59323;50.874;7.028;2023-03-04T01:28:55;102197.63;;;1.12;94.08
71504;BME280;59323;50.874;7.028;2023-03-04T01:31:21;102183.44;;;1.12;94.88
71504;BME280;59323;50.874;7.028;2023-03-04T01:33:46;102178.63;;;1.14;95.21
71504;BME280;59323;50.874;7.028;2023-03-04T01:36:11;102178.09;;;1.12;94.73
71504;BME280;59323;50.874;7.028;2023-03-04T01:38:37;102172.75;;;1.17;94.92
71504;BME280;59323;50.874;7.028;2023-03-04T01:41:02;102167.66;;;1.15;93.75
71504;BME280;59323;50.874;7.028;2023-03-04T01:43:29;102166.59;;;1.16;93.46
71504;BME280;59323;50.874;7.028;2023-03-04T01:45:56;102160.44;;;1.16;94.58
71504;BME280;59323;50.874;7.028;2023-03-04T01:48:28;102163.91;;;1.16;94.24
71504;BME280;59323;50.874;7.028;2023-03-04T01:50:55;102145.97;;;1.17;93.20
71504;BME280;59323;50.874;7.028;2023-03-04T01:53:25;102154.00;;;1.17;93.98
71504;BME280;59323;50.874;7.028;2023-03-04T01:55:53;102151.06;;;1.18;93.73
71504;BME280;59323;50.874;7.028;2023-03-04T01:58:19;102152.13;;;1.17;95.43
71504;BME280;59323;50.874;7.028;2023-03-04T02:00:45;102143.56;;;1.20;95.15
71504;BME280;59323;50.874;7.028;2023-03-04T02:03:13;102138.47;;;1.19;94.41
71504;BME280;59323;50.874;7.028;2023-03-04T02:05:45;102144.91;;;1.23;94.78
71504;BME280;59323;50.874;7.028;2023-03-04T02:08:13;102143.31;;;1.22;92.92
71504;BME280;59323;50.874;7.028;2023-03-04T02:10:41;102143.31;;;1.22;92.36
71504;BME280;59323;50.874;7.028;2023-03-04T02:13:06;102139.56;;;1.23;94.51
71504;BME280;59323;50.874;7.028;2023-03-04T02:15:32;102143.03;;;1.23;95.54
71504;BME280;59323;50.874;7.028;2023-03-04T02:17:57;102132.31;;;1.23;94.94
71504;BME280;59323;50.874;7.028;2023-03-04T02:26:00;102130.19;;;1.25;92.98
71504;BME280;59323;50.874;7.028;2023-03-04T02:28:26;102130.19;;;1.25;93.09
71504;BME280;59323;50.874;7.028;2023-03-04T02:30:51;102125.91;;;1.24;93.33
71504;BME280;59323;50.874;7.028;2023-03-04T02:33:17;102122.69;;;1.27;93.16
71504;BME280;59323;50.874;7.028;2023-03-04T02:35:43;102121.09;;;1.26;94.78
71504;BME280;59323;50.874;7.028;2023-03-04T02:38:10;102122.41;;;1.29;93.99
71504;BME280;59323;50.874;7.028;2023-03-04T02:40:37;102124.88;;;1.31;94.33
71504;BME280;59323;50.874;7.028;2023-03-04T02:43:03;102133.97;;;1.35;94.91
71504;BME280;59323;50.874;7.028;2023-03-04T02:45:34;102117.38;;;1.33;93.60
71504;BME280;59323;50.874;7.028;2023-03-04T02:47:59;102119.78;;;1.34;93.57
71504;BME280;59323;50.874;7.028;2023-03-04T02:50:27;102116.81;;;1.36;94.51
71504;BME280;59323;50.874;7.028;2023-03-04T02:52:53;102122.72;;;1.38;93.59
71504;BME280;59323;50.874;7.028;2023-03-04T02:55:19;102116.56;;;1.37;94.02
71504;BME280;59323;50.874;7.028;2023-03-04T02:57:44;102114.41;;;1.39;94.16
71504;BME280;59323;50.874;7.028;2023-03-04T03:00:10;102116.81;;;1.41;94.23
71504;BME280;59323;50.874;7.028;2023-03-04T03:02:36;102115.50;;;1.43;94.74
71504;BME280;59323;50.874;7.028;2023-03-04T03:05:01;102118.16;;;1.48;93.88
71504;BME280;59323;50.874;7.028;2023-03-04T03:07:26;102118.97;;;1.49;93.78
71504;BME280;59323;50.874;7.028;2023-03-04T03:09:52;102116.00;;;1.50;93.74
71504;BME280;59323;50.874;7.028;2023-03-04T03:12:17;102106.91;;;1.51;93.58
71504;BME280;59323;50.874;7.028;2023-03-04T03:14:42;102101.28;;;1.53;93.82
71504;BME280;59323;50.874;7.028;2023-03-04T03:17:08;102102.88;;;1.54;93.26
71504;BME280;59323;50.874;7.028;2023-03-04T03:19:34;102106.91;;;1.56;93.83
71504;BME280;59323;50.874;7.028;2023-03-04T03:22:00;102106.09;;;1.56;93.82
71504;BME280;59323;50.874;7.028;2023-03-04T03:24:25;102110.91;;;1.59;93.26
71504;BME280;59323;50.874;7.028;2023-03-04T03:26:50;102101.28;;;1.58;93.53
71504;BME280;59323;50.874;7.028;2023-03-04T03:29:16;102099.66;;;1.62;93.08
71504;BME280;59323;50.874;7.028;2023-03-04T03:31:41;102093.22;;;1.63;93.22
71504;BME280;59323;50.874;7.028;2023-03-04T03:34:06;102094.56;;;1.66;93.06
71504;BME280;59323;50.874;7.028;2023-03-04T03:39:06;102078.50;;;1.66;93.11
71504;BME280;59323;50.874;7.028;2023-03-04T03:41:34;102082.50;;;1.68;93.21
71504;BME280;59323;50.874;7.028;2023-03-04T03:44:00;102073.94;;;1.66;92.63
71504;BME280;59323;50.874;7.028;2023-03-04T03:46:26;102084.09;;;1.74;92.67
71504;BME280;59323;50.874;7.028;2023-03-04T03:48:51;102084.63;;;1.76;92.38
71504;BME280;59323;50.874;7.028;2023-03-04T03:51:16;102082.75;;;1.77;92.87
71504;BME280;59323;50.874;7.028;2023-03-04T03:53:42;102089.16;;;1.81;92.34
71504;BME280;59323;50.874;7.028;2023-03-04T03:56:09;102079.28;;;1.76;92.55
71504;BME280;59323;50.874;7.028;2023-03-04T03:58:35;102069.09;;;1.78;92.23
71504;BME280;59323;50.874;7.028;2023-03-04T04:01:00;102073.63;;;1.83;92.39
71504;BME280;59323;50.874;7.028;2023-03-04T04:03:28;102076.28;;;1.88;92.26
71504;BME280;59323;50.874;7.028;2023-03-04T04:05:54;102070.13;;;1.87;92.03
71504;BME280;59323;50.874;7.028;2023-03-04T04:08:19;102081.09;;;1.91;91.92
71504;BME280;59323;50.874;7.028;2023-03-04T04:10:47;102073.06;;;1.91;91.92
71504;BME280;59323;50.874;7.028;2023-03-04T04:13:13;102080.31;;;1.96;91.93
71504;BME280;59323;50.874;7.028;2023-03-04T04:15:38;102089.16;;;1.96;91.74
71504;BME280;59323;50.874;7.028;2023-03-04T04:18:07;102080.84;;;1.98;91.79
71504;BME280;59323;50.874;7.028;2023-03-04T04:20:33;102077.63;;;1.96;91.99
71504;BME280;59323;50.874;7.028;2023-03-04T04:22:59;102072.81;;;1.98;91.35
71504;BME280;59323;50.874;7.028;2023-03-04T04:25:24;102079.78;;;1.99;91.32
71504;BME280;59323;50.874;7.028;2023-03-04T04:27:50;102070.41;;;1.96;91.55
71504;BME280;59323;50.874;7.028;2023-03-04T04:30:15;102065.03;;;1.96;91.56
71504;BME280;59323;50.874;7.028;2023-03-04T04:32:41;102070.09;;;2.03;91.35
71504;BME280;59323;50.874;7.028;2023-03-04T04:35:07;102071.44;;;2.00;91.72
71504;BME280;59323;50.874;7.028;2023-03-04T04:37:32;102070.63;;;2.10;91.21
71504;BME280;59323;50.874;7.028;2023-03-04T04:39:58;102065.78;;;2.12;91.36
71504;BME280;59323;50.874;7.028;2023-03-04T04:42:23;102074.09;;;2.10;91.22
71504;BME280;59323;50.874;7.028;2023-03-04T04:44:49;102073.81;;;2.12;91.03
71504;BME280;59323;50.874;7.028;2023-03-04T04:47:14;102069.00;;;2.14;90.91
71504;BME280;59323;50.874;7.028;2023-03-04T04:49:40;102073.53;;;2.13;90.45
71504;BME280;59323;50.874;7.028;2023-03-04T04:52:05;102080.75;;;2.23;90.49
71504;BME280;59323;50.874;7.028;2023-03-04T04:54:31;102077.25;;;2.22;89.92
71504;BME280;59323;50.874;7.028;2023-03-04T04:56:56;102075.94;;;2.20;90.64
71504;BME280;59323;50.874;7.028;2023-03-04T04:59:21;102075.13;;;2.19;90.50
71504;BME280;59323;50.874;7.028;2023-03-04T05:01:47;102076.72;;;2.20;90.88
71504;BME280;59323;50.874;7.028;2023-03-04T05:04:12;102086.09;;;2.23;90.58
71504;BME280;59323;50.874;7.028;2023-03-04T05:06:38;102073.78;;;2.22;90.77
71504;BME280;59323;50.874;7.028;2023-03-04T05:09:04;102075.94;;;2.20;90.56
71504;BME280;59323;50.874;7.028;2023-03-04T05:11:30;102077.81;;;2.19;90.61
71504;BME280;59323;50.874;7.028;2023-03-04T05:13:55;102073.25;;;2.20;90.87
71504;BME280;59323;50.874;7.028;2023-03-04T05:16:21;102078.63;;;2.20;90.79
71504;BME280;59323;50.874;7.028;2023-03-04T05:18:46;102083.44;;;2.23;91.21
71504;BME280;59323;50.874;7.028;2023-03-04T05:21:14;102079.13;;;2.27;90.84
71504;BME280;59323;50.874;7.028;2023-03-04T05:23:41;102080.16;;;2.31;90.86
71504;BME280;59323;50.874;7.028;2023-03-04T05:26:08;102074.56;;;2.28;90.63
71504;BME280;59323;50.874;7.028;2023-03-04T05:28:34;102072.94;;;2.27;90.22
71504;BME280;59323;50.874;7.028;2023-03-04T05:31:00;102075.88;;;2.30;90.82
71504;BME280;59323;50.874;7.028;2023-03-04T05:33:26;102072.13;;;2.31;90.34
71504;BME280;59323;50.874;7.028;2023-03-04T05:35:51;102074.56;;;2.28;90.18
71504;BME280;59323;50.874;7.028;2023-03-04T05:38:22;102078.56;;;2.30;90.46
71504;BME280;59323;50.874;7.028;2023-03-04T05:40:48;102080.44;;;2.30;90.19
71504;BME280;59323;50.874;7.028;2023-03-04T05:43:14;102079.38;;;2.31;90.33
71504;BME280;59323;50.874;7.028;2023-03-04T05:45:41;102079.66;;;2.24;90.45
71504;BME280;59323;50.874;7.028;2023-03-04T05:48:07;102085.00;;;2.29;90.46
71504;BME280;59323;50.874;7.028;2023-03-04T05:50:33;102094.41;;;2.27;90.68
71504;BME280;59323;50.874;7.028;2023-03-04T05:52:59;102077.78;;;2.25;90.63
71504;BME280;59323;50.874;7.028;2023-03-04T05:55:24;102084.47;;;2.27;90.81
71504;BME280;59323;50.874;7.028;2023-03-04T05:57:51;102072.44;;;2.19;91.22
71504;BME280;59323;50.874;7.028;2023-03-04T06:00:17;102082.34;;;2.24;91.07
71504;BME280;59323;50.874;7.028;2023-03-04T06:02:43;102088.25;;;2.26;91.17
71504;BME280;59323;50.874;7.028;2023-03-04T06:05:13;102095.22;;;2.27;91.06
71504;BME280;59323;50.874;7.028;2023-03-04T06:07:40;102083.97;;;2.25;91.21
71504;BME280;59323;50.874;7.028;2023-03-04T06:10:08;102092.81;;;2.26;91.25
71504;BME280;59323;50.874;7.028;2023-03-04T06:12:33;102087.72;;;2.24;91.09
71504;BME280;59323;50.874;7.028;2023-03-04T06:14:59;102091.19;;;2.30;90.91
71504;BME280;59323;50.874;7.028;2023-03-04T06:17:24;102093.59;;;2.31;90.63
71504;BME280;59323;50.874;7.028;2023-03-04T06:19:50;102087.44;;;2.26;90.83
71504;BME280;59323;50.874;7.028;2023-03-04T06:22:16;102093.03;;;2.34;90.54
71504;BME280;59323;50.874;7.028;2023-03-04T06:24:41;102100.28;;;2.34;90.96
71504;BME280;59323;50.874;7.028;2023-03-04T06:27:06;102095.16;;;2.37;90.53
71504;BME280;59323;50.874;7.028;2023-03-04T06:29:32;102105.31;;;2.45;90.24
71504;BME280;59323;50.874;7.028;2023-03-04T06:31:57;102103.38;;;2.56;89.69
71504;BME280;59323;50.874;7.028;2023-03-04T06:34:23;102095.63;;;2.54;89.32
71504;BME280;59323;50.874;7.028;2023-03-04T06:36:48;102102.59;;;2.55;89.85
71504;BME280;59323;50.874;7.028;2023-03-04T06:39:14;102103.63;;;2.60;89.18
71504;BME280;59323;50.874;7.028;2023-03-04T06:41:42;102106.78;;;2.77;88.63
71504;BME280;59323;50.874;7.028;2023-03-04T06:44:08;102106.19;;;2.85;88.30
71504;BME280;59323;50.874;7.028;2023-03-04T06:46:34;102111.00;;;2.88;87.88
71504;BME280;59323;50.874;7.028;2023-03-04T06:48:59;102114.94;;;3.01;87.20
71504;BME280;59323;50.874;7.028;2023-03-04T06:51:25;102113.59;;;3.03;86.83
71504;BME280;59323;50.874;7.028;2023-03-04T06:53:50;102120.47;;;3.14;86.54
71504;BME280;59323;50.874;7.028;2023-03-04T06:56:16;102119.38;;;3.21;86.41
71504;BME280;59323;50.874;7.028;2023-03-04T06:58:45;102126.81;;;3.34;85.68
71504;BME280;59323;50.874;7.028;2023-03-04T07:01:14;102124.41;;;3.32;85.55
71504;BME280;59323;50.874;7.028;2023-03-04T07:03:40;102122.53;;;3.33;85.62
71504;BME280;59323;50.874;7.028;2023-03-04T07:06:06;102119.88;;;3.23;85.80
71504;BME280;59323;50.874;7.028;2023-03-04T07:08:31;102124.16;;;3.29;85.89
71504;BME280;59323;50.874;7.028;2023-03-04T07:10:56;102121.44;;;3.34;85.61
71504;BME280;59323;50.874;7.028;2023-03-04T07:13:22;102128.41;;;3.35;85.87
71504;BME280;59323;50.874;7.028;2023-03-04T07:15:47;102131.66;;;3.32;85.19
71504;BME280;59323;50.874;7.028;2023-03-04T07:18:12;102126.00;;;3.33;85.85
71504;BME280;59323;50.874;7.028;2023-03-04T07:20:38;102133.97;;;3.43;85.34
71504;BME280;59323;50.874;7.028;2023-03-04T07:23:03;102131.00;;;3.45;84.98
71504;BME280;59323;50.874;7.028;2023-03-04T07:25:28;102140.16;;;3.44;85.43
71504;BME280;59323;50.874;7.028;2023-03-04T07:27:54;102148.22;;;3.44;85.24
71504;BME280;59323;50.874;7.028;2023-03-04T07:30:19;102144.72;;;3.43;84.73
71504;BME280;59323;50.874;7.028;2023-03-04T07:32:45;102143.00;;;3.58;84.43
71504;BME280;59323;50.874;7.028;2023-03-04T07:35:10;102141.63;;;3.60;84.12
71504;BME280;59323;50.874;7.028;2023-03-04T07:37:36;102143.53;;;3.60;84.62
71504;BME280;59323;50.874;7.028;2023-03-04T07:40:02;102146.81;;;3.52;84.91
71504;BME280;59323;50.874;7.028;2023-03-04T07:42:28;102140.06;;;3.54;84.63
71504;BME280;59323;50.874;7.028;2023-03-04T07:44:53;102153.19;;;3.61;84.71
71504;BME280;59323;50.874;7.028;2023-03-04T07:47:19;102145.97;;;3.56;84.75
71504;BME280;59323;50.874;7.028;2023-03-04T07:49:45;102146.72;;;3.62;85.00
71504;BME280;59323;50.874;7.028;2023-03-04T07:52:10;102156.63;;;3.66;84.72
71504;BME280;59323;50.874;7.028;2023-03-04T08:05:23;102154.41;;;3.73;84.87
71504;BME280;59323;50.874;7.028;2023-03-04T08:07:49;102150.13;;;3.72;84.35
71504;BME280;59323;50.874;7.028;2023-03-04T08:10:16;102151.91;;;3.82;83.48
71504;BME280;59323;50.874;7.028;2023-03-04T08:12:42;102159.16;;;3.81;84.42
71504;BME280;59323;50.874;7.028;2023-03-04T08:15:07;102155.91;;;3.85;83.75
71504;BME280;59323;50.874;7.028;2023-03-04T08:17:33;102158.09;;;3.82;83.63
71504;BME280;59323;50.874;7.028;2023-03-04T08:19:59;102160.78;;;3.82;84.03
71504;BME280;59323;50.874;7.028;2023-03-04T08:22:26;102157.00;;;3.83;83.99
71504;BME280;59323;50.874;7.028;2023-03-04T08:24:52;102155.63;;;3.86;83.64
71504;BME280;59323;50.874;7.028;2023-03-04T08:27:18;102156.94;;;3.89;83.04
71504;BME280;59323;50.874;7.028;2023-03-04T08:29:44;102160.19;;;3.91;83.25
71504;BME280;59323;50.874;7.028;2023-03-04T08:32:09;102165.19;;;4.02;82.15
71504;BME280;59323;50.874;7.028;2023-03-04T08:34:38;102165.94;;;4.08;81.45
71504;BME280;59323;50.874;7.028;2023-03-04T08:37:03;102165.19;;;4.02;81.48
71504;BME280;59323;50.874;7.028;2023-03-04T08:39:28;102164.66;;;4.00;82.02
71504;BME280;59323;50.874;7.028;2023-03-04T08:41:54;102158.72;;;4.03;82.17
71504;BME280;59323;50.874;7.028;2023-03-04T08:44:19;102166.78;;;4.03;82.30
71504;BME280;59323;50.874;7.028;2023-03-04T08:46:44;102161.25;;;4.19;81.71
71504;BME280;59323;50.874;7.028;2023-03-04T08:49:11;102174.41;;;4.20;81.52
71504;BME280;59323;50.874;7.028;2023-03-04T08:51:37;102175.78;;;4.18;81.32
71504;BME280;59323;50.874;7.028;2023-03-04T08:54:03;102171.47;;;4.17;82.42
71504;BME280;59323;50.874;7.028;2023-03-04T08:56:29;102168.44;;;4.23;81.92
71504;BME280;59323;50.874;7.028;2023-03-04T08:58:55;102176.25;;;4.25;81.70
71504;BME280;59323;50.874;7.028;2023-03-04T09:01:20;102173.31;;;4.21;82.20
71504;BME280;59323;50.874;7.028;2023-03-04T09:03:46;102174.41;;;4.20;83.00
71504;BME280;59323;50.874;7.028;2023-03-04T09:06:13;102173.03;;;4.23;82.57
71504;BME280;59323;50.874;7.028;2023-03-04T09:08:39;102166.56;;;4.24;82.35
71504;BME280;59323;50.874;7.028;2023-03-04T09:11:05;102171.25;;;4.37;81.84
71504;BME280;59323;50.874;7.028;2023-03-04T09:13:31;102172.13;;;4.32;82.50
71504;BME280;59323;50.874;7.028;2023-03-04T09:15:57;102168.00;;;4.40;82.57
71504;BME280;59323;50.874;7.028;2023-03-04T09:18:24;102168.22;;;4.43;82.38
71504;BME280;59323;50.874;7.028;2023-03-04T09:20:50;102160.94;;;4.44;82.60
71504;BME280;59323;50.874;7.028;2023-03-04T09:23:16;102164.22;;;4.41;82.71
71504;BME280;59323;50.874;7.028;2023-03-04T09:25:43;102169.25;;;4.47;82.31
71504;BME280;59323;50.874;7.028;2023-03-04T09:28:11;102171.94;;;4.47;82.92
71504;BME280;59323;50.874;7.028;2023-03-04T09:30:37;102168.16;;;4.49;83.35
71504;BME280;59323;50.874;7.028;2023-03-04T09:33:02;102176.22;;;4.49;83.19
71504;BME280;59323;50.874;7.028;2023-03-04T09:35:28;102176.22;;;4.49;83.25
71504;BME280;59323;50.874;7.028;2023-03-04T09:37:57;102173.47;;;4.54;84.04
71504;BME280;59323;50.874;7.028;2023-03-04T09:40:44;102175.34;;;4.58;83.40
71504;BME280;59323;50.874;7.028;2023-03-04T09:43:16;102174.97;;;4.65;83.33
71504;BME280;59323;50.874;7.028;2023-03-04T09:45:49;102171.19;;;4.66;83.76
71504;BME280;59323;50.874;7.028;2023-03-04T09:48:19;102164.53;;;4.82;83.78
71504;BME280;59323;50.874;7.028;2023-03-04T09:56:27;102152.81;;;5.62;80.83
71504;BME280;59323;50.874;7.028;2023-03-04T10:06:37;102154.44;;;5.77;79.18
71504;BME280;59323;50.874;7.028;2023-03-04T10:09:10;102155.53;;;5.76;80.33
71504;BME280;59323;50.874;7.028;2023-03-04T10:11:44;102156.13;;;5.72;79.96
71504;BME280;59323;50.874;7.028;2023-03-04T10:16:53;102157.22;;;5.71;80.61
71504;BME280;59323;50.874;7.028;2023-03-04T10:19:35;102151.53;;;5.73;79.31
71504;BME280;59323;50.874;7.028;2023-03-04T10:22:35;102148.56;;;5.74;79.67
71504;BME280;59323;50.874;7.028;2023-03-04T10:25:15;102148.56;;;5.74;79.74
71504;BME280;59323;50.874;7.028;2023-03-04T10:27:42;102139.66;;;5.74;78.96
71504;BME280;59323;50.874;7.028;2023-03-04T10:33:14;102143.94;;;5.75;78.24
71504;BME280;59323;50.874;7.028;2023-03-04T10:35:44;102137.25;;;5.72;79.02
71504;BME280;59323;50.874;7.028;2023-03-04T10:38:14;102129.97;;;5.73;78.86
71504;BME280;59323;50.874;7.028;2023-03-04T10:40:40;102140.00;;;5.86;78.48
71504;BME280;59323;50.874;7.028;2023-03-04T10:43:14;102140.66;;;5.97;79.20
71504;BME280;59323;50.874;7.028;2023-03-04T10:45:39;102137.47;;;6.09;77.82
71504;BME280;59323;50.874;7.028;2023-03-04T10:48:05;102141.56;;;6.20;76.85
71504;BME280;59323;50.874;7.028;2023-03-04T10:50:31;102139.47;;;6.17;77.59
71504;BME280;59323;50.874;7.028;2023-03-04T10:52:57;102131.66;;;6.15;77.56
71504;BME280;59323;50.874;7.028;2023-03-04T10:55:28;102135.75;;;6.13;78.51
71504;BME280;59323;50.874;7.028;2023-03-04T10:57:56;102138.84;;;6.06;80.39
71504;BME280;59323;50.874;7.028;2023-03-04T11:00:32;102121.16;;;6.14;79.23
71504;BME280;59323;50.874;7.028;2023-03-04T11:05:46;102115.88;;;6.22;79.99
71504;BME280;59323;50.874;7.028;2023-03-04T11:08:22;102118.16;;;6.29;78.94
71504;BME280;59323;50.874;7.028;2023-03-04T11:10:49;102118.84;;;6.34;78.51
71504;BME280;59323;50.874;7.028;2023-03-04T11:13:21;102116.84;;;6.40;77.57
71504;BME280;59323;50.874;7.028;2023-03-04T11:16:01;102125.44;;;6.42;77.20
71504;BME280;59323;50.874;7.028;2023-03-04T11:18:40;102119.66;;;6.35;79.56
71504;BME280;59323;50.874;7.028;2023-03-04T11:21:14;102118.56;;;6.36;81.83
71504;BME280;59323;50.874;7.028;2023-03-04T11:26:13;102119.56;;;6.40;81.28
71504;BME280;59323;50.874;7.028;2023-03-04T11:28:44;102117.16;;;6.39;81.76
71504;BME280;59323;50.874;7.028;2023-03-04T11:31:25;102110.38;;;6.27;83.42
71504;BME280;59323;50.874;7.028;2023-03-04T11:39:37;102118.94;;;6.43;84.18
71504;BME280;59323;50.874;7.028;2023-03-04T11:44:58;102097.44;;;6.65;80.53
71504;BME280;59323;50.874;7.028;2023-03-04T11:55:44;102090.91;;;7.03;76.37
71504;BME280;59323;50.874;7.028;2023-03-04T12:03:57;102080.31;;;6.92;76.76
71504;BME280;59323;50.874;7.028;2023-03-04T12:17:08;102061.91;;;6.94;76.84
71504;BME280;59323;50.874;7.028;2023-03-04T12:22:32;102051.09;;;6.94;77.26
71504;BME280;59323;50.874;7.028;2023-03-04T12:28:30;102043.78;;;6.95;75.56
71504;BME280;59323;50.874;7.028;2023-03-04T12:39:12;102033.16;;;6.76;77.24
71504;BME280;59323;50.874;7.028;2023-03-04T12:44:21;102015.53;;;6.79;76.72
71504;BME280;59323;50.874;7.028;2023-03-04T12:47:04;102023.28;;;6.94;77.20
71504;BME280;59323;50.874;7.028;2023-03-04T12:55:13;102012.66;;;6.97;76.18
71504;BME280;59323;50.874;7.028;2023-03-04T12:57:39;102004.38;;;6.94;76.28
71504;BME280;59323;50.874;7.028;2023-03-04T13:08:58;101992.44;;;6.95;74.70
71504;BME280;59323;50.874;7.028;2023-03-04T13:16:46;101980.53;;;6.96;74.55
71504;BME280;59323;50.874;7.028;2023-03-04T13:51:44;101964.97;;;7.02;74.09
71504;BME280;59323;50.874;7.028;2023-03-04T13:54:30;101961.16;;;7.03;74.05
71504;BME280;59323;50.874;7.028;2023-03-04T14:02:17;101949.28;;;7.12;74.14
71504;BME280;59323;50.874;7.028;2023-03-04T14:12:34;101924.75;;;7.00;74.79
71504;BME280;59323;50.874;7.028;2023-03-04T14:17:45;101930.03;;;7.05;76.42
71504;BME280;59323;50.874;7.028;2023-03-04T14:20:33;101930.34;;;7.04;76.14
71504;BME280;59323;50.874;7.028;2023-03-04T14:23:05;101931.94;;;7.05;75.78
71504;BME280;59323;50.874;7.028;2023-03-04T14:25:46;101928.78;;;7.11;75.76
71504;BME280;59323;50.874;7.028;2023-03-04T14:28:14;101928.28;;;7.09;75.82
71504;BME280;59323;50.874;7.028;2023-03-04T14:30:51;101921.56;;;6.98;76.81
71504;BME280;59323;50.874;7.028;2023-03-04T14:33:21;101926.66;;;6.99;76.33
71504;BME280;59323;50.874;7.028;2023-03-04T14:35:50;101911.38;;;6.95;77.50
71504;BME280;59323;50.874;7.028;2023-03-04T14:38:26;101915.50;;;6.92;77.63
71504;BME280;59323;50.874;7.028;2023-03-04T14:41:07;101917.38;;;6.83;78.63
71504;BME280;59323;50.874;7.028;2023-03-04T14:43:39;101912.75;;;6.84;77.68
71504;BME280;59323;50.874;7.028;2023-03-04T14:46:11;101898.41;;;6.75;77.77
71504;BME280;59323;50.874;7.028;2023-03-04T14:48:37;101903.50;;;6.76;77.75
71504;BME280;59323;50.874;7.028;2023-03-04T14:51:03;101905.59;;;6.79;78.17
71504;BME280;59323;50.874;7.028;2023-03-04T14:53:31;101904.47;;;6.80;77.98
71504;BME280;59323;50.874;7.028;2023-03-04T14:56:02;101907.34;;;6.84;78.41
71504;BME280;59323;50.874;7.028;2023-03-04T14:58:36;101900.19;;;6.79;78.72
71504;BME280;59323;50.874;7.028;2023-03-04T15:03:37;101892.88;;;6.80;78.70
71504;BME280;59323;50.874;7.028;2023-03-04T15:06:16;101887.47;;;6.80;78.89
71504;BME280;59323;50.874;7.028;2023-03-04T15:08:43;101880.16;;;6.80;79.17
71504;BME280;59323;50.874;7.028;2023-03-04T15:11:21;101883.47;;;6.77;79.55
71504;BME280;59323;50.874;7.028;2023-03-04T15:13:50;101883.97;;;6.79;79.19
71504;BME280;59323;50.874;7.028;2023-03-04T15:16:28;101883.47;;;6.77;79.12
71504;BME280;59323;50.874;7.028;2023-03-04T15:19:23;101876.97;;;6.78;78.80
71504;BME280;59323;50.874;7.028;2023-03-04T15:22:02;101873.31;;;6.74;79.29
71504;BME280;59323;50.874;7.028;2023-03-04T15:24:28;101875.38;;;6.77;79.59
71504;BME280;59323;50.874;7.028;2023-03-04T15:26:53;101879.00;;;6.73;80.38
71504;BME280;59323;50.874;7.028;2023-03-04T15:29:19;101870.72;;;6.69;80.11
71504;BME280;59323;50.874;7.028;2023-03-04T15:31:45;101874.84;;;6.66;80.77
71504;BME280;59323;50.874;7.028;2023-03-04T15:34:17;101869.88;;;6.60;81.65
71504;BME280;59323;50.874;7.028;2023-03-04T15:36:45;101874.00;;;6.57;81.49
71504;BME280;59323;50.874;7.028;2023-03-04T15:39:12;101874.50;;;6.59;81.57
71504;BME280;59323;50.874;7.028;2023-03-04T15:41:38;101873.50;;;6.55;82.09
71504;BME280;59323;50.874;7.028;2023-03-04T15:44:04;101873.13;;;6.48;82.10
71504;BME280;59323;50.874;7.028;2023-03-04T15:46:29;101867.19;;;6.38;82.43